Time;durP1;ratioP1;P1;durP2;ratioP2;P2;SDS_P1;SDS_P2;PMS_P1;PMS_P2;Temp;Humidity;BMP_temperature;BMP_pressure;BME280_temperature;BME280_humidity;BME280_pressure;Samples;Min_cycle;Max_cycle;Signal;HPM_P1;HPM_P2
2023/04/07 00:01:58;;;;;;;11.38;5.50;;;;;;;;;;5038234;28;20103;-70
2023/04/07 00:04:43;;;;;;;9.32;5.00;;;;;;;;;;5012583;28;20029;-73
2023/04/07 00:07:29;;;;;;;7.20;4.97;;;;;;;;;;5026937;28;20548;-70
2023/04/07 00:10:14;;;;;;;7.55;4.70;;;;;;;;;;5027177;28;20444;-71
2023/04/07 00:12:59;;;;;;;8.95;4.65;;;;;;;;;;5022631;28;20036;-75
2023/04/07 00:15:44;;;;;;;9.02;5.88;;;;;;;;;;5036950;28;20080;-77
2023/04/07 00:18:30;;;;;;;8.25;4.95;;;;;;;;;;5009480;28;20472;-72
2023/04/07 00:21:15;;;;;;;10.43;5.88;;;;;;;;;;5012587;28;20056;-72
2023/04/07 00:24:00;;;;;;;9.50;5.70;;;;;;;;;;5012421;28;20036;-73
2023/04/07 00:26:46;;;;;;;9.30;5.68;;;;;;;;;;5011964;28;20064;-72
2023/04/07 00:29:31;;;;;;;8.30;5.28;;;;;;;;;;5011165;28;20111;-75
2023/04/07 00:32:16;;;;;;;8.82;5.05;;;;;;;;;;5012418;28;20029;-77
2023/04/07 00:35:01;;;;;;;8.23;5.18;;;;;;;;;;5011730;28;20468;-72
2023/04/07 00:37:47;;;;;;;10.23;5.55;;;;;;;;;;5041003;28;20072;-72
2023/04/07 00:40:32;;;;;;;10.10;5.47;;;;;;;;;;5026786;28;20036;-71
2023/04/07 00:43:18;;;;;;;10.90;5.68;;;;;;;;;;5040407;28;20432;-72
2023/04/07 00:46:03;;;;;;;10.00;5.75;;;;;;;;;;5024453;28;20032;-71
2023/04/07 00:48:49;;;;;;;7.93;4.97;;;;;;;;;;5026503;28;20021;-70
2023/04/07 00:51:34;;;;;;;9.32;5.38;;;;;;;;;;5024045;28;20113;-77
2023/04/07 00:54:20;;;;;;;8.93;5.40;;;;;;;;;;5023258;28;20048;-75
2023/04/07 00:57:05;;;;;;;8.52;5.35;;;;;;;;;;5010292;28;20056;-74
2023/04/07 00:59:51;;;;;;;12.88;5.47;;;;;;;;;;5012870;28;20045;-75
2023/04/07 01:02:40;;;;;;;10.80;4.95;;;;;;;;;;4991877;28;20041;-74
2023/04/07 01:05:32;;;;;;;11.00;6.10;;;;;;;;;;5012589;28;20029;-75
2023/04/07 01:08:23;;;;;;;11.48;6.32;;;;;;;;;;5004925;28;20053;-75
2023/04/07 01:11:22;;;;;;;8.07;5.07;;;;;;;;;;4993732;28;20029;-74
2023/04/07 01:14:09;;;;;;;11.60;6.53;;;;;;;;;;5027547;28;20056;-70
2023/04/07 01:16:56;;;;;;;10.48;6.85;;;;;;;;;;5000383;28;20033;-72
2023/04/07 01:19:46;;;;;;;9.82;5.90;;;;;;;;;;5022640;28;20041;-73
2023/04/07 01:22:33;;;;;;;12.07;6.35;;;;;;;;;;5013383;28;20041;-71
2023/04/07 01:25:18;;;;;;;11.13;6.97;;;;;;;;;;5012885;28;20513;-72
2023/04/07 01:28:04;;;;;;;8.82;5.20;;;;;;;;;;5027518;28;20264;-77
2023/04/07 01:30:51;;;;;;;10.63;5.15;;;;;;;;;;5014109;28;20060;-75
2023/04/07 01:33:38;;;;;;;9.48;6.18;;;;;;;;;;5015847;28;20021;-74
2023/04/07 01:36:27;;;;;;;9.73;6.13;;;;;;;;;;5039848;28;20067;-73
2023/04/07 01:39:12;;;;;;;9.65;5.70;;;;;;;;;;5023986;28;20477;-74
2023/04/07 01:42:01;;;;;;;8.45;5.20;;;;;;;;;;5036199;28;20037;-73
2023/04/07 01:44:46;;;;;;;9.60;5.70;;;;;;;;;;5028756;28;20021;-81
2023/04/07 01:47:33;;;;;;;10.23;5.65;;;;;;;;;;5024377;28;20037;-80
2023/04/07 01:50:19;;;;;;;11.27;6.00;;;;;;;;;;5027395;28;20478;-79
2023/04/07 01:53:05;;;;;;;10.68;5.65;;;;;;;;;;5015394;28;20033;-78
2023/04/07 01:55:51;;;;;;;12.18;6.20;;;;;;;;;;5012637;28;20029;-80
2023/04/07 01:58:36;;;;;;;11.35;5.90;;;;;;;;;;5041785;28;20067;-79
2023/04/07 02:01:21;;;;;;;9.43;5.57;;;;;;;;;;5013090;28;20037;-79
2023/04/07 02:04:19;;;;;;;10.75;5.65;;;;;;;;;;5028602;28;20104;-77
2023/04/07 02:07:10;;;;;;;9.32;5.57;;;;;;;;;;5025753;28;20140;-79
2023/04/07 02:09:56;;;;;;;11.38;6.65;;;;;;;;;;5028303;28;20232;-80
2023/04/07 02:12:43;;;;;;;10.63;5.45;;;;;;;;;;5031640;28;20033;-80
2023/04/07 02:15:30;;;;;;;8.77;5.55;;;;;;;;;;5014825;28;20029;-79
2023/04/07 02:18:15;;;;;;;10.27;5.70;;;;;;;;;;5015679;28;20021;-80
2023/04/07 02:21:01;;;;;;;11.82;5.75;;;;;;;;;;5041904;28;20045;-78
2023/04/07 02:23:46;;;;;;;9.93;5.95;;;;;;;;;;5015358;28;20108;-71
2023/04/07 02:26:35;;;;;;;8.68;5.32;;;;;;;;;;5000890;28;20807;-79
2023/04/07 02:29:20;;;;;;;8.90;5.80;;;;;;;;;;5026170;28;20033;-79
2023/04/07 02:32:06;;;;;;;8.93;5.38;;;;;;;;;;5027870;28;20492;-80
2023/04/07 02:34:51;;;;;;;9.30;5.78;;;;;;;;;;5028491;28;20121;-79
2023/04/07 02:37:36;;;;;;;12.95;6.05;;;;;;;;;;5027468;28;20104;-80
2023/04/07 02:40:22;;;;;;;9.52;5.32;;;;;;;;;;5015166;28;20025;-76
2023/04/07 02:43:07;;;;;;;9.05;5.38;;;;;;;;;;5028160;28;20025;-75
2023/04/07 02:45:52;;;;;;;9.30;6.03;;;;;;;;;;5010655;28;20030;-75
2023/04/07 02:48:37;;;;;;;11.60;6.07;;;;;;;;;;5014535;28;20030;-74
2023/04/07 02:51:22;;;;;;;12.98;6.43;;;;;;;;;;5026519;28;20037;-77
2023/04/07 02:54:08;;;;;;;9.40;6.03;;;;;;;;;;5027232;28;20113;-76
2023/04/07 02:56:53;;;;;;;8.30;5.90;;;;;;;;;;5041073;28;20056;-74
2023/04/07 02:59:39;;;;;;;8.65;4.57;;;;;;;;;;5025885;28;20117;-72
2023/04/07 03:02:24;;;;;;;10.77;5.20;;;;;;;;;;5025936;28;20110;-72
2023/04/07 03:05:09;;;;;;;9.73;6.15;;;;;;;;;;5026280;28;20021;-73
2023/04/07 03:07:55;;;;;;;8.48;5.25;;;;;;;;;;5013204;28;20056;-72
2023/04/07 03:10:40;;;;;;;10.65;5.82;;;;;;;;;;5027830;28;20044;-73
2023/04/07 03:13:26;;;;;;;10.75;5.80;;;;;;;;;;5014514;28;20117;-73
2023/04/07 03:16:11;;;;;;;10.52;5.68;;;;;;;;;;5011617;28;20032;-72
2023/04/07 03:18:57;;;;;;;8.05;5.28;;;;;;;;;;5013667;28;20022;-77
2023/04/07 03:21:42;;;;;;;9.23;5.45;;;;;;;;;;5026942;28;20041;-71
2023/04/07 03:24:27;;;;;;;8.10;4.70;;;;;;;;;;5009979;28;20408;-71
2023/04/07 03:27:12;;;;;;;10.82;5.85;;;;;;;;;;5027787;28;20029;-71
2023/04/07 03:29:58;;;;;;;10.25;5.60;;;;;;;;;;5013558;28;20028;-74
2023/04/07 03:32:43;;;;;;;10.45;6.72;;;;;;;;;;5014059;28;20037;-73
2023/04/07 03:35:28;;;;;;;8.60;5.28;;;;;;;;;;5022709;28;20512;-80
2023/04/07 03:38:13;;;;;;;7.65;5.20;;;;;;;;;;5022339;28;20102;-74
2023/04/07 03:40:59;;;;;;;10.18;5.53;;;;;;;;;;5027796;28;20036;-72
2023/04/07 03:43:44;;;;;;;8.57;4.82;;;;;;;;;;5028075;28;20029;-72
2023/04/07 03:46:29;;;;;;;8.07;5.05;;;;;;;;;;5026741;28;20079;-75
2023/04/07 03:49:15;;;;;;;7.90;5.22;;;;;;;;;;5025465;28;20036;-71
2023/04/07 03:52:00;;;;;;;10.23;5.82;;;;;;;;;;5036613;28;20037;-72
2023/04/07 03:54:46;;;;;;;8.75;5.57;;;;;;;;;;5027245;28;20033;-75
2023/04/07 03:57:31;;;;;;;11.07;5.18;;;;;;;;;;5027706;28;20090;-71
2023/04/07 04:00:16;;;;;;;12.00;6.00;;;;;;;;;;5026272;28;20048;-75
2023/04/07 04:03:01;;;;;;;8.90;5.68;;;;;;;;;;5027568;28;20033;-71
2023/04/07 04:05:47;;;;;;;10.85;5.65;;;;;;;;;;5023139;28;20032;-71
2023/04/07 04:08:32;;;;;;;8.45;5.38;;;;;;;;;;5025183;28;20464;-70
2023/04/07 04:11:17;;;;;;;10.95;6.07;;;;;;;;;;5011501;28;20067;-71
2023/04/07 04:14:02;;;;;;;10.23;5.95;;;;;;;;;;5027405;28;20021;-80
2023/04/07 04:16:47;;;;;;;11.18;6.00;;;;;;;;;;5025796;28;20400;-75
2023/04/07 04:19:33;;;;;;;10.82;5.65;;;;;;;;;;5026952;28;20033;-72
2023/04/07 04:22:18;;;;;;;9.90;5.20;;;;;;;;;;5025568;28;20036;-72
2023/04/07 04:25:03;;;;;;;8.30;5.13;;;;;;;;;;5027351;28;20092;-70
2023/04/07 04:27:49;;;;;;;11.20;5.43;;;;;;;;;;5020353;28;20480;-70
2023/04/07 04:30:34;;;;;;;10.70;5.43;;;;;;;;;;5015750;28;20056;-77
2023/04/07 04:33:20;;;;;;;7.97;4.80;;;;;;;;;;5017397;28;20037;-74
2023/04/07 04:36:05;;;;;;;9.80;5.78;;;;;;;;;;5030564;28;20030;-72
2023/04/07 04:38:51;;;;;;;11.60;5.80;;;;;;;;;;5030152;28;20033;-72
2023/04/07 04:41:36;;;;;;;8.07;5.32;;;;;;;;;;5022750;28;20049;-72
2023/04/07 04:44:21;;;;;;;10.88;5.07;;;;;;;;;;5028549;28;20038;-71
2023/04/07 04:47:06;;;;;;;10.00;5.40;;;;;;;;;;5024448;28;20492;-72
2023/04/07 04:49:51;;;;;;;9.38;5.28;;;;;;;;;;5030664;28;20068;-73
2023/04/07 04:52:37;;;;;;;10.57;6.03;;;;;;;;;;5016091;28;20105;-74
2023/04/07 04:55:23;;;;;;;9.02;5.72;;;;;;;;;;5029593;28;20030;-74
2023/04/07 04:58:08;;;;;;;9.13;5.32;;;;;;;;;;5029809;28;20032;-72
2023/04/07 05:00:56;;;;;;;9.27;5.63;;;;;;;;;;5013263;28;20540;-73
2023/04/07 05:03:42;;;;;;;10.07;5.75;;;;;;;;;;5041568;28;20087;-73
2023/04/07 05:06:27;;;;;;;7.72;5.13;;;;;;;;;;5013609;28;20104;-76
2023/04/07 05:09:12;;;;;;;7.47;5.05;;;;;;;;;;5009019;28;20037;-75
2023/04/07 05:11:57;;;;;;;9.73;5.88;;;;;;;;;;5016600;28;20488;-72
2023/04/07 05:14:43;;;;;;;10.40;5.50;;;;;;;;;;5014266;28;20064;-72
2023/04/07 05:17:28;;;;;;;10.75;6.35;;;;;;;;;;5012042;28;20013;-72
2023/04/07 05:20:13;;;;;;;9.55;5.47;;;;;;;;;;5014589;28;20063;-72
2023/04/07 05:22:58;;;;;;;10.45;6.63;;;;;;;;;;5015080;28;20029;-76
2023/04/07 05:25:43;;;;;;;11.00;5.68;;;;;;;;;;5028858;28;20037;-73
2023/04/07 05:28:29;;;;;;;8.40;4.97;;;;;;;;;;5015458;28;20056;-79
2023/04/07 05:31:14;;;;;;;8.77;5.18;;;;;;;;;;5028248;28;20032;-77
2023/04/07 05:33:59;;;;;;;11.32;6.45;;;;;;;;;;5033840;28;20112;-79
2023/04/07 05:36:45;;;;;;;10.60;5.15;;;;;;;;;;5006792;28;20028;-80
2023/04/07 05:39:30;;;;;;;9.90;5.75;;;;;;;;;;5011867;28;20033;-80
2023/04/07 05:42:15;;;;;;;11.10;6.47;;;;;;;;;;5011575;28;20033;-79
2023/04/07 05:45:01;;;;;;;8.13;5.15;;;;;;;;;;5026836;28;20034;-79
2023/04/07 05:47:48;;;;;;;10.52;7.20;;;;;;;;;;5012627;28;20083;-73
2023/04/07 05:50:34;;;;;;;11.70;5.15;;;;;;;;;;5012434;28;20078;-72
2023/04/07 05:53:19;;;;;;;9.65;6.07;;;;;;;;;;5011593;28;20033;-74
2023/04/07 05:56:04;;;;;;;8.43;5.72;;;;;;;;;;5010709;28;20033;-72
2023/04/07 05:58:50;;;;;;;8.43;5.40;;;;;;;;;;5014008;28;20164;-72
2023/04/07 06:01:35;;;;;;;12.02;5.30;;;;;;;;;;5010897;28;20025;-72
2023/04/07 06:04:20;;;;;;;9.88;5.82;;;;;;;;;;5025730;28;20021;-74
2023/04/07 06:07:05;;;;;;;12.10;7.18;;;;;;;;;;5025662;28;20141;-68
2023/04/07 06:09:51;;;;;;;8.55;5.80;;;;;;;;;;5023799;28;20037;-73
2023/04/07 06:12:36;;;;;;;11.38;5.65;;;;;;;;;;5022125;28;20472;-75
2023/04/07 06:15:21;;;;;;;8.93;6.03;;;;;;;;;;5021326;28;20033;-72
2023/04/07 06:18:06;;;;;;;9.98;5.80;;;;;;;;;;5016990;28;20056;-76
2023/04/07 06:20:52;;;;;;;8.88;5.45;;;;;;;;;;5028087;28;20030;-75
2023/04/07 06:23:37;;;;;;;14.73;6.00;;;;;;;;;;5028591;28;20117;-73
2023/04/07 06:26:22;;;;;;;10.48;6.65;;;;;;;;;;5013002;28;20051;-74
2023/04/07 06:29:07;;;;;;;9.32;6.53;;;;;;;;;;5028790;28;20131;-75
2023/04/07 06:31:53;;;;;;;10.18;5.22;;;;;;;;;;5021036;28;20032;-75
2023/04/07 06:34:38;;;;;;;16.75;6.03;;;;;;;;;;5014821;28;20029;-75
2023/04/07 06:37:24;;;;;;;10.80;6.80;;;;;;;;;;5042391;28;20049;-74
2023/04/07 06:40:10;;;;;;;10.10;5.50;;;;;;;;;;5028641;28;20440;-74
2023/04/07 06:42:55;;;;;;;10.93;5.95;;;;;;;;;;5028397;28;20049;-76
2023/04/07 06:45:40;;;;;;;7.97;5.50;;;;;;;;;;5025529;28;20025;-77
2023/04/07 06:48:26;;;;;;;13.02;6.75;;;;;;;;;;5027174;28;20408;-75
2023/04/07 06:51:11;;;;;;;12.30;6.35;;;;;;;;;;5011815;28;20060;-76
2023/04/07 06:53:56;;;;;;;9.55;5.72;;;;;;;;;;5028805;28;20037;-76
2023/04/07 06:56:43;;;;;;;11.02;6.50;;;;;;;;;;5014761;28;20511;-75
2023/04/07 06:59:28;;;;;;;11.38;6.75;;;;;;;;;;5029361;28;20503;-78
2023/04/07 07:02:14;;;;;;;11.65;7.25;;;;;;;;;;5020444;28;20093;-80
2023/04/07 07:05:00;;;;;;;15.57;6.30;;;;;;;;;;5030780;28;20036;-79
2023/04/07 07:07:45;;;;;;;9.60;5.57;;;;;;;;;;5004224;28;20443;-79
2023/04/07 07:10:30;;;;;;;10.15;6.50;;;;;;;;;;5027506;28;20022;-78
2023/04/07 07:13:15;;;;;;;10.95;6.82;;;;;;;;;;5028339;28;20082;-78
2023/04/07 07:16:00;;;;;;;12.65;7.05;;;;;;;;;;5028512;28;20021;-79
2023/04/07 07:18:46;;;;;;;11.27;6.97;;;;;;;;;;5023063;28;20049;-74
2023/04/07 07:21:31;;;;;;;11.45;6.40;;;;;;;;;;5026900;28;20486;-73
2023/04/07 07:24:16;;;;;;;12.40;6.72;;;;;;;;;;5027461;28;20021;-72
2023/04/07 07:27:02;;;;;;;12.90;6.43;;;;;;;;;;5026908;28;20033;-74
2023/04/07 07:29:47;;;;;;;11.65;6.80;;;;;;;;;;5027457;28;20086;-76
2023/04/07 07:32:32;;;;;;;9.77;6.38;;;;;;;;;;5036052;28;20044;-76
2023/04/07 07:35:18;;;;;;;14.38;7.00;;;;;;;;;;5027307;28;20520;-75
2023/04/07 07:38:03;;;;;;;12.00;7.10;;;;;;;;;;5027785;28;20033;-75
2023/04/07 07:40:49;;;;;;;12.82;6.93;;;;;;;;;;5041168;28;20075;-77
2023/04/07 07:43:35;;;;;;;13.45;7.00;;;;;;;;;;5013757;28;20119;-74
2023/04/07 07:46:23;;;;;;;11.18;6.82;;;;;;;;;;5040355;28;20017;-75
2023/04/07 07:49:08;;;;;;;13.85;7.22;;;;;;;;;;5012077;28;20124;-71
2023/04/07 07:51:53;;;;;;;11.75;7.13;;;;;;;;;;5025647;28;20075;-74
2023/04/07 07:54:39;;;;;;;9.43;6.20;;;;;;;;;;5027218;28;20192;-80
2023/04/07 07:57:24;;;;;;;9.13;6.18;;;;;;;;;;5037709;28;20060;-71
2023/04/07 08:00:10;;;;;;;9.75;6.40;;;;;;;;;;5026893;28;20032;-71
2023/04/07 08:02:55;;;;;;;7.75;5.50;;;;;;;;;;5013588;28;20033;-71
2023/04/07 08:05:41;;;;;;;11.40;6.32;;;;;;;;;;5011715;28;20029;-71
2023/04/07 08:08:26;;;;;;;9.63;5.90;;;;;;;;;;5027247;28;20388;-71
2023/04/07 08:11:12;;;;;;;9.02;6.20;;;;;;;;;;5027225;28;20129;-70
2023/04/07 08:13:57;;;;;;;9.30;6.25;;;;;;;;;;5026991;28;20063;-75
2023/04/07 08:16:42;;;;;;;10.20;6.13;;;;;;;;;;5013148;28;20034;-75
2023/04/07 08:19:28;;;;;;;9.25;6.57;;;;;;;;;;5013408;28;20108;-76
2023/04/07 08:22:13;;;;;;;8.40;5.45;;;;;;;;;;5025567;28;20048;-76
2023/04/07 08:24:58;;;;;;;8.60;5.88;;;;;;;;;;5013012;28;20028;-76
2023/04/07 08:27:43;;;;;;;10.27;5.97;;;;;;;;;;5000400;28;20052;-75
2023/04/07 08:30:29;;;;;;;9.63;5.13;;;;;;;;;;5013241;28;20132;-75
2023/04/07 08:33:14;;;;;;;6.93;4.53;;;;;;;;;;5012757;28;20052;-73
2023/04/07 08:35:59;;;;;;;7.60;5.10;;;;;;;;;;5040949;28;20033;-74
2023/04/07 08:38:44;;;;;;;7.80;4.75;;;;;;;;;;5021261;28;20115;-73
2023/04/07 08:41:36;;;;;;;9.07;5.63;;;;;;;;;;5028016;28;20424;-74
2023/04/07 08:44:22;;;;;;;7.95;5.25;;;;;;;;;;5012836;28;20484;-73
2023/04/07 08:47:10;;;;;;;7.82;5.25;;;;;;;;;;5023334;28;20041;-73
2023/04/07 08:49:59;;;;;;;6.63;4.68;;;;;;;;;;5023479;28;20488;-77
2023/04/07 08:52:54;;;;;;;9.57;5.38;;;;;;;;;;5026822;28;20025;-75
2023/04/07 08:55:40;;;;;;;11.00;5.30;;;;;;;;;;5025925;28;20457;-74
2023/04/07 08:58:26;;;;;;;7.60;4.55;;;;;;;;;;5024827;28;20056;-73
2023/04/07 09:01:12;;;;;;;8.88;5.53;;;;;;;;;;5025932;28;20057;-74
2023/04/07 09:03:57;;;;;;;6.65;4.50;;;;;;;;;;4999978;28;20107;-74
2023/04/07 09:06:43;;;;;;;9.23;6.03;;;;;;;;;;5025607;28;20056;-73
2023/04/07 09:09:28;;;;;;;8.75;5.10;;;;;;;;;;5026595;28;20021;-79
2023/04/07 09:12:13;;;;;;;8.90;5.20;;;;;;;;;;5038505;28;20032;-69
2023/04/07 09:14:59;;;;;;;8.05;5.10;;;;;;;;;;5027614;28;20029;-70
2023/04/07 09:17:44;;;;;;;6.00;4.20;;;;;;;;;;5018209;28;20099;-70
2023/04/07 09:20:49;;;;;;;7.82;5.18;;;;;;;;;;5044383;28;20068;-70
2023/04/07 09:23:36;;;;;;;8.20;5.25;;;;;;;;;;5030188;28;20033;-71
2023/04/07 09:26:23;;;;;;;10.32;5.28;;;;;;;;;;5030209;28;20400;-75
2023/04/07 09:29:08;;;;;;;7.47;5.20;;;;;;;;;;5028585;28;20771;-75
2023/04/07 09:31:54;;;;;;;8.57;4.53;;;;;;;;;;5022415;28;20033;-76
2023/04/07 09:34:40;;;;;;;6.38;3.90;;;;;;;;;;5029782;28;20374;-76
2023/04/07 09:37:25;;;;;;;8.15;4.13;;;;;;;;;;5029865;28;20384;-74
2023/04/07 09:40:10;;;;;;;7.75;4.40;;;;;;;;;;5029954;28;20036;-75
2023/04/07 09:42:57;;;;;;;6.45;3.72;;;;;;;;;;5028790;28;20136;-74
2023/04/07 09:45:42;;;;;;;6.45;3.95;;;;;;;;;;5024755;28;20461;-79
2023/04/07 09:48:28;;;;;;;6.65;3.53;;;;;;;;;;5015695;28;20500;-79
2023/04/07 09:51:14;;;;;;;6.90;4.05;;;;;;;;;;5027362;28;20349;-80
2023/04/07 09:53:59;;;;;;;8.40;3.58;;;;;;;;;;5022601;28;20037;-81
2023/04/07 09:56:44;;;;;;;5.90;3.92;;;;;;;;;;5029942;28;20098;-80
2023/04/07 09:59:30;;;;;;;6.75;4.00;;;;;;;;;;5029747;28;20030;-85
2023/04/07 10:02:15;;;;;;;7.05;3.83;;;;;;;;;;5027617;28;20156;-71
2023/04/07 10:05:01;;;;;;;6.13;4.00;;;;;;;;;;5029424;28;20412;-76
2023/04/07 10:07:47;;;;;;;6.55;4.07;;;;;;;;;;5015387;28;20084;-74
2023/04/07 10:10:33;;;;;;;7.43;4.28;;;;;;;;;;5015360;28;20033;-74
2023/04/07 10:13:19;;;;;;;5.95;4.30;;;;;;;;;;5022335;28;20402;-75
2023/04/07 10:16:05;;;;;;;6.93;3.88;;;;;;;;;;5025845;28;20057;-74
2023/04/07 10:18:51;;;;;;;9.15;4.03;;;;;;;;;;5026043;28;20452;-74
2023/04/07 10:21:38;;;;;;;9.65;5.47;;;;;;;;;;5024410;28;20037;-75
2023/04/07 10:24:39;;;;;;;9.30;4.75;;;;;;;;;;5015047;28;20644;-75
2023/04/07 10:27:32;;;;;;;7.70;4.60;;;;;;;;;;5028331;28;20033;-75
2023/04/07 10:30:22;;;;;;;7.72;4.88;;;;;;;;;;5014968;28;20033;-73
2023/04/07 10:33:07;;;;;;;10.60;4.90;;;;;;;;;;5031405;28;20268;-75
2023/04/07 10:36:06;;;;;;;9.45;4.95;;;;;;;;;;5013946;28;20494;-73
2023/04/07 10:39:06;;;;;;;6.72;4.30;;;;;;;;;;5029213;28;20029;-73
2023/04/07 10:41:52;;;;;;;10.40;5.55;;;;;;;;;;5008858;28;20041;-75
2023/04/07 10:44:37;;;;;;;8.88;5.30;;;;;;;;;;5014061;28;20086;-76
2023/04/07 10:47:22;;;;;;;6.38;4.25;;;;;;;;;;5027277;28;20191;-75
2023/04/07 10:50:13;;;;;;;8.68;4.93;;;;;;;;;;5014641;28;20094;-75
2023/04/07 10:53:12;;;;;;;7.78;4.72;;;;;;;;;;5015049;28;20029;-74
2023/04/07 10:56:00;;;;;;;8.45;4.35;;;;;;;;;;5027091;28;20222;-73
2023/04/07 10:58:45;;;;;;;8.45;4.68;;;;;;;;;;5042838;28;20033;-71
2023/04/07 11:01:31;;;;;;;7.13;4.38;;;;;;;;;;5014348;28;20061;-78
2023/04/07 11:04:16;;;;;;;8.55;4.88;;;;;;;;;;5007374;28;20029;-80
2023/04/07 11:07:01;;;;;;;7.30;4.70;;;;;;;;;;5027685;28;20057;-80
2023/04/07 11:09:47;;;;;;;6.88;4.75;;;;;;;;;;5013094;28;20032;-79
2023/04/07 11:12:32;;;;;;;7.68;4.70;;;;;;;;;;5015595;28;20033;-80
2023/04/07 11:15:21;;;;;;;8.57;4.22;;;;;;;;;;5028287;28;20492;-78
2023/04/07 11:18:10;;;;;;;9.70;4.30;;;;;;;;;;5028072;28;20091;-73
2023/04/07 11:20:59;;;;;;;9.20;4.60;;;;;;;;;;5036609;28;20057;-70
2023/04/07 11:23:45;;;;;;;10.37;5.17;;;;;;;;;;5028068;28;20045;-70
2023/04/07 11:26:36;;;;;;;11.77;4.13;;;;;;;;;;5014172;28;20813;-69
2023/04/07 11:29:32;;;;;;;5.38;3.17;;;;;;;;;;5014190;28;20609;-70
2023/04/07 11:32:21;;;;;;;7.82;3.13;;;;;;;;;;5027662;28;20021;-70
2023/04/07 11:35:06;;;;;;;5.47;2.63;;;;;;;;;;5013834;28;20044;-75
2023/04/07 11:37:59;;;;;;;5.57;2.70;;;;;;;;;;5011888;28;20468;-73
2023/04/07 11:40:45;;;;;;;4.28;2.35;;;;;;;;;;5012981;28;20063;-75
2023/04/07 11:43:31;;;;;;;5.28;2.70;;;;;;;;;;5012377;28;20037;-73
2023/04/07 11:46:17;;;;;;;4.60;2.28;;;;;;;;;;5013010;28;20369;-73
2023/04/07 11:49:10;;;;;;;5.32;2.28;;;;;;;;;;5012979;28;20191;-74
2023/04/07 11:52:08;;;;;;;3.92;2.80;;;;;;;;;;5025755;28;20017;-73
2023/04/07 11:54:53;;;;;;;6.78;3.05;;;;;;;;;;5012237;28;20068;-74
2023/04/07 11:57:39;;;;;;;6.18;2.78;;;;;;;;;;5013750;28;20055;-73
2023/04/07 12:00:24;;;;;;;5.65;3.50;;;;;;;;;;5027213;28;20231;-71
2023/04/07 12:03:14;;;;;;;7.20;3.95;;;;;;;;;;5027332;28;20044;-73
2023/04/07 12:06:00;;;;;;;7.00;4.50;;;;;;;;;;5026342;28;20072;-73
2023/04/07 12:08:46;;;;;;;9.10;4.65;;;;;;;;;;5039576;28;20041;-71
2023/04/07 12:11:31;;;;;;;7.20;4.85;;;;;;;;;;5027249;28;20480;-73
2023/04/07 12:14:17;;;;;;;8.45;4.70;;;;;;;;;;5026824;28;20069;-72
2023/04/07 12:17:02;;;;;;;8.63;4.72;;;;;;;;;;5036813;28;20025;-72
2023/04/07 12:19:47;;;;;;;8.32;4.75;;;;;;;;;;5040902;28;20040;-75
2023/04/07 12:22:33;;;;;;;8.23;4.13;;;;;;;;;;5026455;28;20041;-75
2023/04/07 12:25:18;;;;;;;9.70;4.22;;;;;;;;;;5025546;28;20018;-75
2023/04/07 12:28:03;;;;;;;7.50;3.88;;;;;;;;;;5012650;28;20021;-73
2023/04/07 12:30:48;;;;;;;8.07;3.60;;;;;;;;;;5027590;28;20029;-73
2023/04/07 12:33:34;;;;;;;7.93;3.72;;;;;;;;;;5026754;28;20143;-74
2023/04/07 12:36:19;;;;;;;7.13;3.42;;;;;;;;;;5040640;28;20393;-75
2023/04/07 12:39:05;;;;;;;4.75;3.30;;;;;;;;;;5027253;28;20026;-74
2023/04/07 12:41:52;;;;;;;6.43;3.15;;;;;;;;;;5006687;28;20030;-74
2023/04/07 12:44:37;;;;;;;6.72;3.20;;;;;;;;;;5027623;28;20093;-75
2023/04/07 12:47:22;;;;;;;7.40;3.78;;;;;;;;;;5026968;28;20056;-77
2023/04/07 12:50:07;;;;;;;5.28;2.72;;;;;;;;;;5014455;28;20421;-76
2023/04/07 12:52:53;;;;;;;5.38;3.08;;;;;;;;;;5030949;28;20048;-74
2023/04/07 12:55:38;;;;;;;5.15;2.90;;;;;;;;;;5017093;28;20037;-73
2023/04/07 12:58:25;;;;;;;8.50;3.47;;;;;;;;;;5015503;28;20104;-73
2023/04/07 13:01:10;;;;;;;5.53;3.20;;;;;;;;;;5016450;28;20531;-73
2023/04/07 13:03:55;;;;;;;7.05;3.13;;;;;;;;;;5029963;28;20524;-74
2023/04/07 13:06:41;;;;;;;8.07;3.58;;;;;;;;;;5030539;28;20060;-73
2023/04/07 13:09:26;;;;;;;9.35;3.92;;;;;;;;;;5016815;28;20056;-74
2023/04/07 13:12:12;;;;;;;4.32;2.65;;;;;;;;;;5015308;28;20017;-73
2023/04/07 13:14:57;;;;;;;4.60;2.70;;;;;;;;;;5028001;28;20041;-74
2023/04/07 13:17:42;;;;;;;5.80;2.80;;;;;;;;;;5009648;28;20503;-76
2023/04/07 13:20:29;;;;;;;6.50;3.58;;;;;;;;;;5029240;28;20229;-74
2023/04/07 13:23:14;;;;;;;5.15;2.92;;;;;;;;;;5029102;28;20482;-72
2023/04/07 13:26:00;;;;;;;5.43;3.00;;;;;;;;;;5029281;28;20026;-73
2023/04/07 13:28:46;;;;;;;8.43;3.30;;;;;;;;;;5016881;28;20167;-69
2023/04/07 13:31:31;;;;;;;5.90;3.90;;;;;;;;;;5021558;28;20029;-68
2023/04/07 13:34:17;;;;;;;6.78;3.42;;;;;;;;;;5043189;28;20377;-69
2023/04/07 13:37:02;;;;;;;5.13;3.17;;;;;;;;;;5030310;28;20049;-71
2023/04/07 13:39:48;;;;;;;4.13;2.67;;;;;;;;;;5030024;28;20030;-69
2023/04/07 13:42:33;;;;;;;7.65;3.55;;;;;;;;;;5043483;28;20077;-69
2023/04/07 13:45:18;;;;;;;5.00;3.20;;;;;;;;;;5015425;28;20087;-71
2023/04/07 13:48:03;;;;;;;7.45;3.17;;;;;;;;;;5029646;28;20527;-77
2023/04/07 13:50:49;;;;;;;6.65;2.97;;;;;;;;;;5029275;28;20033;-77
2023/04/07 13:53:34;;;;;;;9.27;2.90;;;;;;;;;;5029721;28;20029;-78
2023/04/07 13:56:21;;;;;;;4.25;2.65;;;;;;;;;;5016109;28;20029;-79
2023/04/07 13:59:06;;;;;;;6.20;3.00;;;;;;;;;;5025006;28;20025;-78
2023/04/07 14:01:51;;;;;;;8.55;2.88;;;;;;;;;;5040782;28;20037;-72
2023/04/07 14:04:36;;;;;;;5.60;2.80;;;;;;;;;;5016202;28;20036;-73
2023/04/07 14:07:22;;;;;;;4.97;2.67;;;;;;;;;;5012748;28;20056;-74
2023/04/07 14:10:08;;;;;;;4.15;2.47;;;;;;;;;;5029367;28;20040;-72
2023/04/07 14:12:53;;;;;;;5.53;2.85;;;;;;;;;;5015551;28;20531;-75
2023/04/07 14:15:38;;;;;;;3.55;2.53;;;;;;;;;;5014504;28;20025;-74
2023/04/07 14:18:23;;;;;;;5.05;2.30;;;;;;;;;;5024353;28;20102;-73
2023/04/07 14:21:09;;;;;;;7.70;2.80;;;;;;;;;;5041939;28;20032;-73
2023/04/07 14:23:54;;;;;;;6.00;3.20;;;;;;;;;;5015023;28;20104;-75
2023/04/07 14:26:46;;;;;;;5.15;2.50;;;;;;;;;;5015622;28;20052;-74
2023/04/07 14:29:31;;;;;;;6.85;2.53;;;;;;;;;;5013068;28;20041;-75
2023/04/07 14:32:17;;;;;;;4.93;2.65;;;;;;;;;;5014927;28;20079;-75
2023/04/07 14:35:02;;;;;;;4.13;3.00;;;;;;;;;;5015066;28;20029;-74
2023/04/07 14:37:47;;;;;;;4.70;2.90;;;;;;;;;;5013712;28;20117;-75
2023/04/07 14:40:32;;;;;;;4.53;2.72;;;;;;;;;;5015320;28;20029;-73
2023/04/07 14:43:18;;;;;;;5.38;2.60;;;;;;;;;;5024061;28;20049;-72
2023/04/07 14:46:03;;;;;;;4.47;2.28;;;;;;;;;;5025951;28;20029;-72
2023/04/07 14:48:50;;;;;;;4.55;2.88;;;;;;;;;;5028636;28;20025;-73
2023/04/07 14:51:36;;;;;;;5.13;2.63;;;;;;;;;;5027081;28;20029;-70
2023/04/07 14:54:22;;;;;;;7.10;3.30;;;;;;;;;;5028853;28;20072;-70
2023/04/07 14:57:07;;;;;;;6.75;3.20;;;;;;;;;;5040510;28;20044;-71
2023/04/07 14:59:52;;;;;;;7.63;3.63;;;;;;;;;;5042832;28;20053;-73
2023/04/07 15:02:40;;;;;;;5.07;3.05;;;;;;;;;;5028277;28;20041;-72
2023/04/07 15:05:27;;;;;;;6.93;2.92;;;;;;;;;;5028184;28;20052;-73
2023/04/07 15:08:12;;;;;;;5.80;3.03;;;;;;;;;;5027036;28;20148;-73
2023/04/07 15:10:58;;;;;;;3.90;2.38;;;;;;;;;;5024363;28;20472;-74
2023/04/07 15:13:43;;;;;;;6.88;2.70;;;;;;;;;;5028199;28;20071;-73
2023/04/07 15:16:28;;;;;;;3.83;2.13;;;;;;;;;;5028407;28;20075;-72
2023/04/07 15:19:15;;;;;;;10.27;3.40;;;;;;;;;;5027882;28;20029;-74
2023/04/07 15:22:00;;;;;;;7.45;2.97;;;;;;;;;;5013729;28;20061;-74
2023/04/07 15:24:46;;;;;;;6.85;3.33;;;;;;;;;;5025788;28;20029;-74
2023/04/07 15:27:31;;;;;;;5.05;2.80;;;;;;;;;;5027531;28;20441;-75
2023/04/07 15:30:17;;;;;;;5.55;3.08;;;;;;;;;;5041411;28;20063;-75
2023/04/07 15:33:03;;;;;;;6.07;3.70;;;;;;;;;;5037133;28;20587;-76
2023/04/07 15:35:48;;;;;;;6.53;3.03;;;;;;;;;;5014448;28;20025;-75
2023/04/07 15:38:33;;;;;;;8.45;3.25;;;;;;;;;;5013991;28;20148;-74
2023/04/07 15:41:19;;;;;;;7.75;2.70;;;;;;;;;;5010586;28;20057;-74
2023/04/07 15:44:05;;;;;;;5.03;2.88;;;;;;;;;;5013377;28;20037;-72
2023/04/07 15:46:50;;;;;;;6.95;3.17;;;;;;;;;;5013482;28;20029;-71
2023/04/07 15:49:38;;;;;;;5.38;3.00;;;;;;;;;;5026642;28;20053;-73
2023/04/07 15:52:23;;;;;;;6.03;3.33;;;;;;;;;;5020077;28;20377;-70
2023/04/07 15:55:09;;;;;;;5.82;2.92;;;;;;;;;;5013955;28;20044;-74
2023/04/07 15:57:54;;;;;;;4.05;2.58;;;;;;;;;;5027272;28;20033;-76
2023/04/07 16:00:39;;;;;;;6.20;3.05;;;;;;;;;;5024524;28;20083;-73
2023/04/07 16:03:26;;;;;;;5.85;3.45;;;;;;;;;;5013213;28;20124;-73
2023/04/07 16:06:12;;;;;;;6.15;3.40;;;;;;;;;;5018134;28;20072;-73
2023/04/07 16:08:57;;;;;;;5.97;3.38;;;;;;;;;;5027483;28;20040;-74
2023/04/07 16:11:42;;;;;;;7.03;3.67;;;;;;;;;;5021635;28;20068;-73
2023/04/07 16:14:28;;;;;;;8.07;4.03;;;;;;;;;;5024532;28;20380;-71
2023/04/07 16:17:13;;;;;;;6.30;3.65;;;;;;;;;;5025648;28;20036;-69
2023/04/07 16:19:58;;;;;;;7.10;3.20;;;;;;;;;;5027467;28;20703;-71
2023/04/07 16:22:47;;;;;;;5.32;3.63;;;;;;;;;;5026904;28;20038;-70
2023/04/07 16:25:32;;;;;;;8.75;3.63;;;;;;;;;;5043102;28;20025;-71
2023/04/07 16:28:17;;;;;;;9.05;3.47;;;;;;;;;;5031554;28;20026;-71
2023/04/07 16:31:05;;;;;;;7.20;3.50;;;;;;;;;;5015864;28;20036;-77